sensor_id;sensor_type;location;lat;lon;timestamp;P1;durP1;ratioP1;P2;durP2;ratioP2
7919;SDS011;18778;47.610;9.776;2023-02-01T00:00:45;11.30;;;8.77;;
7919;SDS011;18778;47.610;9.776;2023-02-01T00:03:11;10.83;;;8.53;;
7919;SDS011;18778;47.610;9.776;2023-02-01T00:05:37;11.33;;;8.30;;
7919;SDS011;18778;47.610;9.776;2023-02-01T00:08:03;10.23;;;8.13;;
7919;SDS011;18778;47.610;9.776;2023-02-01T00:10:29;10.43;;;7.60;;
7919;SDS011;18778;47.610;9.776;2023-02-01T00:12:54;11.67;;;8.50;;
7919;SDS011;18778;47.610;9.776;2023-02-01T00:15:20;10.73;;;7.53;;
7919;SDS011;18778;47.610;9.776;2023-02-01T00:17:45;12.17;;;8.33;;
7919;SDS011;18778;47.610;9.776;2023-02-01T00:20:11;11.23;;;8.27;;
7919;SDS011;18778;47.610;9.776;2023-02-01T00:22:37;10.10;;;8.30;;
7919;SDS011;18778;47.610;9.776;2023-02-01T00:25:02;10.43;;;7.70;;
7919;SDS011;18778;47.610;9.776;2023-02-01T00:27:28;9.90;;;8.30;;
7919;SDS011;18778;47.610;9.776;2023-02-01T00:29:54;10.47;;;8.33;;
7919;SDS011;18778;47.610;9.776;2023-02-01T00:32:20;9.20;;;8.03;;
7919;SDS011;18778;47.610;9.776;2023-02-01T00:34:46;9.90;;;8.40;;
7919;SDS011;18778;47.610;9.776;2023-02-01T00:37:11;11.67;;;9.23;;
7919;SDS011;18778;47.610;9.776;2023-02-01T00:39:37;12.27;;;7.60;;
7919;SDS011;18778;47.610;9.776;2023-02-01T00:42:02;11.47;;;9.17;;
7919;SDS011;18778;47.610;9.776;2023-02-01T00:44:28;11.57;;;8.10;;
7919;SDS011;18778;47.610;9.776;2023-02-01T00:46:58;11.80;;;8.93;;
7919;SDS011;18778;47.610;9.776;2023-02-01T00:49:24;13.23;;;8.50;;
7919;SDS011;18778;47.610;9.776;2023-02-01T00:51:49;9.70;;;8.27;;
7919;SDS011;18778;47.610;9.776;2023-02-01T00:54:15;11.80;;;8.63;;
7919;SDS011;18778;47.610;9.776;2023-02-01T00:56:41;9.90;;;7.87;;
7919;SDS011;18778;47.610;9.776;2023-02-01T00:59:07;12.80;;;8.83;;
7919;SDS011;18778;47.610;9.776;2023-02-01T01:01:35;12.47;;;9.03;;
7919;SDS011;18778;47.610;9.776;2023-02-01T01:04:01;10.47;;;8.40;;
7919;SDS011;18778;47.610;9.776;2023-02-01T01:06:27;12.83;;;8.90;;
7919;SDS011;18778;47.610;9.776;2023-02-01T01:08:55;14.10;;;9.90;;
7919;SDS011;18778;47.610;9.776;2023-02-01T01:11:24;10.77;;;8.90;;
7919;SDS011;18778;47.610;9.776;2023-02-01T01:13:51;11.50;;;8.93;;
7919;SDS011;18778;47.610;9.776;2023-02-01T01:16:18;14.33;;;10.10;;
7919;SDS011;18778;47.610;9.776;2023-02-01T01:18:44;12.37;;;9.70;;
7919;SDS011;18778;47.610;9.776;2023-02-01T01:21:11;12.40;;;9.40;;
7919;SDS011;18778;47.610;9.776;2023-02-01T01:23:38;12.17;;;9.40;;
7919;SDS011;18778;47.610;9.776;2023-02-01T01:26:05;14.23;;;9.53;;
7919;SDS011;18778;47.610;9.776;2023-02-01T01:28:32;11.73;;;9.40;;
7919;SDS011;18778;47.610;9.776;2023-02-01T01:30:57;13.33;;;10.37;;
7919;SDS011;18778;47.610;9.776;2023-02-01T01:33:23;14.53;;;10.33;;
7919;SDS011;18778;47.610;9.776;2023-02-01T01:35:48;13.97;;;10.20;;
7919;SDS011;18778;47.610;9.776;2023-02-01T01:38:14;15.50;;;11.03;;
7919;SDS011;18778;47.610;9.776;2023-02-01T01:40:39;17.97;;;11.03;;
7919;SDS011;18778;47.610;9.776;2023-02-01T01:43:12;15.57;;;11.80;;
7919;SDS011;18778;47.610;9.776;2023-02-01T01:45:39;15.10;;;10.90;;
7919;SDS011;18778;47.610;9.776;2023-02-01T01:48:07;13.83;;;11.07;;
7919;SDS011;18778;47.610;9.776;2023-02-01T01:50:33;17.50;;;11.33;;
7919;SDS011;18778;47.610;9.776;2023-02-01T01:53:03;16.00;;;11.63;;
7919;SDS011;18778;47.610;9.776;2023-02-01T01:55:31;15.67;;;11.67;;
7919;SDS011;18778;47.610;9.776;2023-02-01T01:58:03;14.63;;;11.63;;
7919;SDS011;18778;47.610;9.776;2023-02-01T02:00:31;16.60;;;11.90;;
7919;SDS011;18778;47.610;9.776;2023-02-01T02:03:09;14.97;;;11.57;;
7919;SDS011;18778;47.610;9.776;2023-02-01T02:05:40;20.03;;;11.73;;
7919;SDS011;18778;47.610;9.776;2023-02-01T02:08:06;16.27;;;13.03;;
7919;SDS011;18778;47.610;9.776;2023-02-01T02:10:32;17.40;;;13.00;;
7919;SDS011;18778;47.610;9.776;2023-02-01T02:13:16;17.50;;;12.73;;
7919;SDS011;18778;47.610;9.776;2023-02-01T02:15:50;17.47;;;12.40;;
7919;SDS011;18778;47.610;9.776;2023-02-01T02:18:39;14.70;;;11.53;;
7919;SDS011;18778;47.610;9.776;2023-02-01T02:21:49;18.37;;;12.43;;
7919;SDS011;18778;47.610;9.776;2023-02-01T02:27:21;16.43;;;12.20;;
7919;SDS011;18778;47.610;9.776;2023-02-01T02:33:14;14.77;;;11.90;;
7919;SDS011;18778;47.610;9.776;2023-02-01T02:36:00;17.60;;;11.67;;
7919;SDS011;18778;47.610;9.776;2023-02-01T02:41:27;15.40;;;10.93;;
7919;SDS011;18778;47.610;9.776;2023-02-01T02:53:00;13.27;;;10.27;;
7919;SDS011;18778;47.610;9.776;2023-02-01T02:56:03;15.70;;;9.87;;
7919;SDS011;18778;47.610;9.776;2023-02-01T02:58:49;13.07;;;10.03;;
7919;SDS011;18778;47.610;9.776;2023-02-01T03:01:35;13.67;;;9.87;;
7919;SDS011;18778;47.610;9.776;2023-02-01T03:04:21;13.00;;;9.50;;
7919;SDS011;18778;47.610;9.776;2023-02-01T03:06:48;13.37;;;10.03;;
7919;SDS011;18778;47.610;9.776;2023-02-01T03:09:26;13.37;;;10.53;;
7919;SDS011;18778;47.610;9.776;2023-02-01T03:11:58;10.87;;;9.13;;
7919;SDS011;18778;47.610;9.776;2023-02-01T03:14:48;15.40;;;9.93;;
7919;SDS011;18778;47.610;9.776;2023-02-01T03:17:22;11.63;;;9.57;;
7919;SDS011;18778;47.610;9.776;2023-02-01T03:19:55;12.80;;;9.17;;
7919;SDS011;18778;47.610;9.776;2023-02-01T03:22:27;11.00;;;8.87;;
7919;SDS011;18778;47.610;9.776;2023-02-01T03:24:59;13.60;;;10.27;;
7919;SDS011;18778;47.610;9.776;2023-02-01T03:27:36;13.87;;;10.20;;
7919;SDS011;18778;47.610;9.776;2023-02-01T03:30:14;13.37;;;9.83;;
7919;SDS011;18778;47.610;9.776;2023-02-01T03:32:57;12.00;;;9.17;;
7919;SDS011;18778;47.610;9.776;2023-02-01T03:38:01;12.53;;;9.20;;
7919;SDS011;18778;47.610;9.776;2023-02-01T03:40:45;10.83;;;8.97;;
7919;SDS011;18778;47.610;9.776;2023-02-01T03:43:16;11.80;;;9.00;;
7919;SDS011;18778;47.610;9.776;2023-02-01T03:45:44;11.80;;;9.33;;
7919;SDS011;18778;47.610;9.776;2023-02-01T03:48:14;13.50;;;9.20;;
7919;SDS011;18778;47.610;9.776;2023-02-01T03:50:43;13.67;;;9.63;;
7919;SDS011;18778;47.610;9.776;2023-02-01T03:53:14;11.00;;;9.07;;
7919;SDS011;18778;47.610;9.776;2023-02-01T03:55:42;9.03;;;7.80;;
7919;SDS011;18778;47.610;9.776;2023-02-01T03:58:16;12.20;;;8.20;;
7919;SDS011;18778;47.610;9.776;2023-02-01T04:00:45;12.77;;;8.00;;
7919;SDS011;18778;47.610;9.776;2023-02-01T04:03:16;12.20;;;8.10;;
7919;SDS011;18778;47.610;9.776;2023-02-01T04:05:41;12.70;;;8.33;;
7919;SDS011;18778;47.610;9.776;2023-02-01T04:08:07;10.30;;;7.20;;
7919;SDS011;18778;47.610;9.776;2023-02-01T04:10:32;10.73;;;7.97;;
7919;SDS011;18778;47.610;9.776;2023-02-01T04:12:58;11.00;;;7.43;;
7919;SDS011;18778;47.610;9.776;2023-02-01T04:15:23;9.93;;;7.30;;
7919;SDS011;18778;47.610;9.776;2023-02-01T04:17:49;10.30;;;7.70;;
7919;SDS011;18778;47.610;9.776;2023-02-01T04:20:15;11.10;;;7.70;;
7919;SDS011;18778;47.610;9.776;2023-02-01T04:22:40;11.37;;;7.17;;
7919;SDS011;18778;47.610;9.776;2023-02-01T04:25:06;8.67;;;7.23;;
7919;SDS011;18778;47.610;9.776;2023-02-01T04:27:33;10.80;;;7.73;;
7919;SDS011;18778;47.610;9.776;2023-02-01T04:29:58;10.17;;;7.40;;
7919;SDS011;18778;47.610;9.776;2023-02-01T04:32:24;8.97;;;6.97;;
7919;SDS011;18778;47.610;9.776;2023-02-01T04:34:49;8.63;;;7.43;;
7919;SDS011;18778;47.610;9.776;2023-02-01T04:37:15;10.83;;;7.40;;
7919;SDS011;18778;47.610;9.776;2023-02-01T04:39:40;9.63;;;7.00;;
7919;SDS011;18778;47.610;9.776;2023-02-01T04:42:06;8.53;;;7.43;;
7919;SDS011;18778;47.610;9.776;2023-02-01T04:44:31;9.57;;;7.37;;
7919;SDS011;18778;47.610;9.776;2023-02-01T04:46:57;9.57;;;7.30;;
7919;SDS011;18778;47.610;9.776;2023-02-01T04:49:23;9.07;;;8.03;;
7919;SDS011;18778;47.610;9.776;2023-02-01T04:51:50;10.67;;;7.40;;
7919;SDS011;18778;47.610;9.776;2023-02-01T04:54:16;10.30;;;6.93;;
7919;SDS011;18778;47.610;9.776;2023-02-01T04:56:41;11.67;;;7.43;;
7919;SDS011;18778;47.610;9.776;2023-02-01T04:59:07;10.20;;;7.33;;
7919;SDS011;18778;47.610;9.776;2023-02-01T05:01:32;9.10;;;7.00;;
7919;SDS011;18778;47.610;9.776;2023-02-01T05:03:58;7.87;;;6.70;;
7919;SDS011;18778;47.610;9.776;2023-02-01T05:06:24;9.27;;;7.23;;
7919;SDS011;18778;47.610;9.776;2023-02-01T05:08:49;9.40;;;7.77;;
7919;SDS011;18778;47.610;9.776;2023-02-01T05:11:15;9.87;;;7.17;;
7919;SDS011;18778;47.610;9.776;2023-02-01T05:13:59;9.43;;;7.70;;
7919;SDS011;18778;47.610;9.776;2023-02-01T05:16:25;10.53;;;7.37;;
7919;SDS011;18778;47.610;9.776;2023-02-01T05:18:52;10.43;;;7.20;;
7919;SDS011;18778;47.610;9.776;2023-02-01T05:21:17;10.50;;;8.47;;
7919;SDS011;18778;47.610;9.776;2023-02-01T05:23:43;12.70;;;8.17;;
7919;SDS011;18778;47.610;9.776;2023-02-01T05:26:27;10.93;;;8.00;;
7919;SDS011;18778;47.610;9.776;2023-02-01T05:28:53;11.43;;;7.83;;
7919;SDS011;18778;47.610;9.776;2023-02-01T05:31:20;11.07;;;8.37;;
7919;SDS011;18778;47.610;9.776;2023-02-01T05:33:47;12.00;;;7.80;;
7919;SDS011;18778;47.610;9.776;2023-02-01T05:36:12;8.93;;;6.97;;
7919;SDS011;18778;47.610;9.776;2023-02-01T05:38:38;10.70;;;7.33;;
7919;SDS011;18778;47.610;9.776;2023-02-01T05:41:04;8.57;;;6.43;;
7919;SDS011;18778;47.610;9.776;2023-02-01T05:43:30;8.83;;;6.73;;
7919;SDS011;18778;47.610;9.776;2023-02-01T05:45:55;8.53;;;6.70;;
7919;SDS011;18778;47.610;9.776;2023-02-01T05:48:21;8.37;;;6.70;;
7919;SDS011;18778;47.610;9.776;2023-02-01T05:50:46;11.47;;;6.70;;
7919;SDS011;18778;47.610;9.776;2023-02-01T05:53:12;7.97;;;6.47;;
7919;SDS011;18778;47.610;9.776;2023-02-01T05:55:38;8.37;;;6.77;;
7919;SDS011;18778;47.610;9.776;2023-02-01T05:58:04;7.43;;;6.63;;
7919;SDS011;18778;47.610;9.776;2023-02-01T06:00:30;8.77;;;6.60;;
7919;SDS011;18778;47.610;9.776;2023-02-01T06:02:56;8.73;;;6.73;;
7919;SDS011;18778;47.610;9.776;2023-02-01T06:05:22;9.47;;;7.00;;
7919;SDS011;18778;47.610;9.776;2023-02-01T06:07:48;9.07;;;7.03;;
7919;SDS011;18778;47.610;9.776;2023-02-01T06:10:14;9.10;;;6.80;;
7919;SDS011;18778;47.610;9.776;2023-02-01T06:12:41;7.43;;;6.60;;
7919;SDS011;18778;47.610;9.776;2023-02-01T06:15:07;8.70;;;6.87;;
7919;SDS011;18778;47.610;9.776;2023-02-01T06:17:33;9.63;;;7.00;;
7919;SDS011;18778;47.610;9.776;2023-02-01T06:19:59;8.23;;;6.60;;
7919;SDS011;18778;47.610;9.776;2023-02-01T06:22:24;11.87;;;6.60;;
7919;SDS011;18778;47.610;9.776;2023-02-01T06:24:50;8.33;;;6.43;;
7919;SDS011;18778;47.610;9.776;2023-02-01T06:27:15;10.03;;;6.60;;
7919;SDS011;18778;47.610;9.776;2023-02-01T06:29:41;9.73;;;6.30;;
7919;SDS011;18778;47.610;9.776;2023-02-01T06:32:06;6.77;;;6.07;;
7919;SDS011;18778;47.610;9.776;2023-02-01T06:34:32;8.37;;;5.50;;
7919;SDS011;18778;47.610;9.776;2023-02-01T06:36:57;8.07;;;5.60;;
7919;SDS011;18778;47.610;9.776;2023-02-01T06:39:23;8.80;;;6.30;;
7919;SDS011;18778;47.610;9.776;2023-02-01T06:41:49;11.03;;;5.90;;
7919;SDS011;18778;47.610;9.776;2023-02-01T06:44:15;7.30;;;5.63;;
7919;SDS011;18778;47.610;9.776;2023-02-01T06:46:41;6.73;;;5.83;;
7919;SDS011;18778;47.610;9.776;2023-02-01T06:49:07;8.57;;;5.90;;
7919;SDS011;18778;47.610;9.776;2023-02-01T06:51:33;7.47;;;5.77;;
7919;SDS011;18778;47.610;9.776;2023-02-01T06:53:59;7.93;;;6.17;;
7919;SDS011;18778;47.610;9.776;2023-02-01T06:56:25;8.47;;;6.40;;
7919;SDS011;18778;47.610;9.776;2023-02-01T06:58:51;7.53;;;5.80;;
7919;SDS011;18778;47.610;9.776;2023-02-01T07:01:16;7.17;;;5.73;;
7919;SDS011;18778;47.610;9.776;2023-02-01T07:03:42;8.03;;;6.13;;
7919;SDS011;18778;47.610;9.776;2023-02-01T07:06:11;7.43;;;6.40;;
7919;SDS011;18778;47.610;9.776;2023-02-01T07:08:37;8.43;;;6.37;;
7919;SDS011;18778;47.610;9.776;2023-02-01T07:11:03;7.70;;;6.90;;
7919;SDS011;18778;47.610;9.776;2023-02-01T07:13:30;7.60;;;6.73;;
7919;SDS011;18778;47.610;9.776;2023-02-01T07:16:02;10.77;;;7.27;;
7919;SDS011;18778;47.610;9.776;2023-02-01T07:18:30;14.37;;;7.27;;
7919;SDS011;18778;47.610;9.776;2023-02-01T07:20:56;13.63;;;6.73;;
7919;SDS011;18778;47.610;9.776;2023-02-01T07:23:22;7.60;;;6.77;;
7919;SDS011;18778;47.610;9.776;2023-02-01T07:25:48;8.60;;;6.13;;
7919;SDS011;18778;47.610;9.776;2023-02-01T07:28:14;14.00;;;7.57;;
7919;SDS011;18778;47.610;9.776;2023-02-01T07:30:39;10.20;;;7.20;;
7919;SDS011;18778;47.610;9.776;2023-02-01T07:33:06;11.17;;;6.57;;
7919;SDS011;18778;47.610;9.776;2023-02-01T07:35:31;7.87;;;6.80;;
7919;SDS011;18778;47.610;9.776;2023-02-01T07:37:57;10.03;;;7.60;;
7919;SDS011;18778;47.610;9.776;2023-02-01T07:40:24;10.90;;;6.97;;
7919;SDS011;18778;47.610;9.776;2023-02-01T07:42:54;7.47;;;6.50;;
7919;SDS011;18778;47.610;9.776;2023-02-01T07:45:20;9.47;;;6.40;;
7919;SDS011;18778;47.610;9.776;2023-02-01T07:47:46;9.50;;;7.03;;
7919;SDS011;18778;47.610;9.776;2023-02-01T07:50:12;11.23;;;7.10;;
7919;SDS011;18778;47.610;9.776;2023-02-01T07:52:37;9.47;;;6.70;;
7919;SDS011;18778;47.610;9.776;2023-02-01T07:55:03;9.37;;;6.93;;
7919;SDS011;18778;47.610;9.776;2023-02-01T07:57:29;10.80;;;6.60;;
7919;SDS011;18778;47.610;9.776;2023-02-01T07:59:54;9.20;;;7.23;;
7919;SDS011;18778;47.610;9.776;2023-02-01T08:02:43;8.13;;;6.57;;
7919;SDS011;18778;47.610;9.776;2023-02-01T08:05:08;9.13;;;6.23;;
7919;SDS011;18778;47.610;9.776;2023-02-01T08:07:34;8.53;;;6.17;;
7919;SDS011;18778;47.610;9.776;2023-02-01T08:10:00;8.00;;;5.97;;
7919;SDS011;18778;47.610;9.776;2023-02-01T08:12:25;6.50;;;5.77;;
7919;SDS011;18778;47.610;9.776;2023-02-01T08:14:52;9.03;;;6.20;;
7919;SDS011;18778;47.610;9.776;2023-02-01T08:17:18;10.37;;;5.90;;
7919;SDS011;18778;47.610;9.776;2023-02-01T08:19:44;8.73;;;6.27;;
7919;SDS011;18778;47.610;9.776;2023-02-01T08:22:10;6.90;;;5.37;;
7919;SDS011;18778;47.610;9.776;2023-02-01T08:24:36;7.30;;;5.50;;
7919;SDS011;18778;47.610;9.776;2023-02-01T08:27:04;8.13;;;6.70;;
7919;SDS011;18778;47.610;9.776;2023-02-01T08:29:30;7.40;;;6.60;;
7919;SDS011;18778;47.610;9.776;2023-02-01T08:31:56;8.60;;;6.50;;
7919;SDS011;18778;47.610;9.776;2023-02-01T08:34:21;9.07;;;5.80;;
7919;SDS011;18778;47.610;9.776;2023-02-01T08:36:47;7.67;;;5.77;;
7919;SDS011;18778;47.610;9.776;2023-02-01T08:39:13;7.80;;;5.87;;
7919;SDS011;18778;47.610;9.776;2023-02-01T08:41:38;7.20;;;5.90;;
7919;SDS011;18778;47.610;9.776;2023-02-01T08:44:04;10.47;;;5.87;;
7919;SDS011;18778;47.610;9.776;2023-02-01T08:46:30;6.57;;;5.80;;
7919;SDS011;18778;47.610;9.776;2023-02-01T08:48:56;7.90;;;5.57;;
7919;SDS011;18778;47.610;9.776;2023-02-01T08:51:22;8.20;;;6.03;;
7919;SDS011;18778;47.610;9.776;2023-02-01T08:53:48;8.07;;;6.20;;
7919;SDS011;18778;47.610;9.776;2023-02-01T08:56:15;8.03;;;5.77;;
7919;SDS011;18778;47.610;9.776;2023-02-01T08:58:42;8.77;;;6.80;;
7919;SDS011;18778;47.610;9.776;2023-02-01T09:01:09;6.33;;;5.30;;
7919;SDS011;18778;47.610;9.776;2023-02-01T09:03:37;6.50;;;5.10;;
7919;SDS011;18778;47.610;9.776;2023-02-01T09:06:03;5.87;;;5.27;;
7919;SDS011;18778;47.610;9.776;2023-02-01T09:08:31;7.40;;;5.43;;
7919;SDS011;18778;47.610;9.776;2023-02-01T09:11:00;8.00;;;6.13;;
7919;SDS011;18778;47.610;9.776;2023-02-01T09:13:27;6.80;;;5.30;;
7919;SDS011;18778;47.610;9.776;2023-02-01T09:15:52;6.53;;;5.07;;
7919;SDS011;18778;47.610;9.776;2023-02-01T09:18:18;7.10;;;5.60;;
7919;SDS011;18778;47.610;9.776;2023-02-01T09:20:44;6.43;;;5.77;;
7919;SDS011;18778;47.610;9.776;2023-02-01T09:23:10;8.80;;;6.63;;
7919;SDS011;18778;47.610;9.776;2023-02-01T09:25:39;7.57;;;6.03;;
7919;SDS011;18778;47.610;9.776;2023-02-01T09:28:05;9.97;;;6.30;;
7919;SDS011;18778;47.610;9.776;2023-02-01T09:30:31;7.83;;;6.20;;
7919;SDS011;18778;47.610;9.776;2023-02-01T09:32:58;8.23;;;5.77;;
7919;SDS011;18778;47.610;9.776;2023-02-01T09:35:23;7.70;;;5.43;;
7919;SDS011;18778;47.610;9.776;2023-02-01T09:37:49;7.33;;;5.40;;
7919;SDS011;18778;47.610;9.776;2023-02-01T09:40:15;9.07;;;5.10;;
7919;SDS011;18778;47.610;9.776;2023-02-01T09:48:15;5.67;;;4.63;;
7919;SDS011;18778;47.610;9.776;2023-02-01T09:50:56;6.03;;;5.43;;
7919;SDS011;18778;47.610;9.776;2023-02-01T09:53:30;7.43;;;5.43;;
7919;SDS011;18778;47.610;9.776;2023-02-01T09:56:07;5.53;;;5.03;;
7919;SDS011;18778;47.610;9.776;2023-02-01T09:58:46;4.93;;;4.43;;
7919;SDS011;18778;47.610;9.776;2023-02-01T10:01:18;5.47;;;4.73;;
7919;SDS011;18778;47.610;9.776;2023-02-01T10:03:46;7.90;;;5.13;;
7919;SDS011;18778;47.610;9.776;2023-02-01T10:17:04;4.40;;;3.70;;
7919;SDS011;18778;47.610;9.776;2023-02-01T10:22:27;4.50;;;3.60;;
7919;SDS011;18778;47.610;9.776;2023-02-01T10:28:06;3.80;;;3.40;;
7919;SDS011;18778;47.610;9.776;2023-02-01T10:30:41;4.07;;;3.43;;
7919;SDS011;18778;47.610;9.776;2023-02-01T10:33:23;3.77;;;3.23;;
7919;SDS011;18778;47.610;9.776;2023-02-01T10:35:52;5.33;;;3.60;;
7919;SDS011;18778;47.610;9.776;2023-02-01T10:40:51;4.47;;;3.73;;
7919;SDS011;18778;47.610;9.776;2023-02-01T10:43:20;3.83;;;3.43;;
7919;SDS011;18778;47.610;9.776;2023-02-01T10:45:46;4.70;;;3.83;;
7919;SDS011;18778;47.610;9.776;2023-02-01T10:48:12;4.07;;;3.50;;
7919;SDS011;18778;47.610;9.776;2023-02-01T10:50:46;3.93;;;3.63;;
7919;SDS011;18778;47.610;9.776;2023-02-01T10:53:20;4.43;;;3.70;;
7919;SDS011;18778;47.610;9.776;2023-02-01T10:55:51;3.93;;;3.30;;
7919;SDS011;18778;47.610;9.776;2023-02-01T10:58:26;4.83;;;3.50;;
7919;SDS011;18778;47.610;9.776;2023-02-01T11:06:17;4.13;;;3.67;;
7919;SDS011;18778;47.610;9.776;2023-02-01T11:08:49;4.53;;;3.47;;
7919;SDS011;18778;47.610;9.776;2023-02-01T11:11:20;4.37;;;3.90;;
7919;SDS011;18778;47.610;9.776;2023-02-01T11:14:32;3.90;;;3.50;;
7919;SDS011;18778;47.610;9.776;2023-02-01T11:16:41;4.10;;;3.70;;
7919;SDS011;18778;47.610;9.776;2023-02-01T11:19:14;4.47;;;3.60;;
7919;SDS011;18778;47.610;9.776;2023-02-01T11:21:41;4.37;;;3.97;;
7919;SDS011;18778;47.610;9.776;2023-02-01T11:24:16;4.10;;;3.70;;
7919;SDS011;18778;47.610;9.776;2023-02-01T11:26:56;4.30;;;3.90;;
7919;SDS011;18778;47.610;9.776;2023-02-01T11:29:23;4.43;;;3.80;;
7919;SDS011;18778;47.610;9.776;2023-02-01T11:31:54;4.17;;;3.30;;
7919;SDS011;18778;47.610;9.776;2023-02-01T11:34:23;4.63;;;4.13;;
7919;SDS011;18778;47.610;9.776;2023-02-01T11:36:56;3.87;;;3.57;;
7919;SDS011;18778;47.610;9.776;2023-02-01T11:39:26;4.00;;;3.60;;
7919;SDS011;18778;47.610;9.776;2023-02-01T11:44:41;3.70;;;3.30;;
7919;SDS011;18778;47.610;9.776;2023-02-01T11:47:20;4.57;;;4.00;;
7919;SDS011;18778;47.610;9.776;2023-02-01T11:50:01;3.57;;;3.23;;
7919;SDS011;18778;47.610;9.776;2023-02-01T11:55:32;4.50;;;3.37;;
7919;SDS011;18778;47.610;9.776;2023-02-01T12:05:54;3.33;;;3.03;;
7919;SDS011;18778;47.610;9.776;2023-02-01T12:08:36;4.23;;;3.00;;
7919;SDS011;18778;47.610;9.776;2023-02-01T12:11:29;3.20;;;3.00;;
7919;SDS011;18778;47.610;9.776;2023-02-01T12:17:25;3.60;;;3.23;;
7919;SDS011;18778;47.610;9.776;2023-02-01T12:20:19;3.27;;;3.00;;
7919;SDS011;18778;47.610;9.776;2023-02-01T12:26:11;3.97;;;3.63;;
7919;SDS011;18778;47.610;9.776;2023-02-01T12:28:38;3.73;;;3.27;;
7919;SDS011;18778;47.610;9.776;2023-02-01T12:31:13;4.10;;;3.47;;
7919;SDS011;18778;47.610;9.776;2023-02-01T12:33:48;3.33;;;3.13;;
7919;SDS011;18778;47.610;9.776;2023-02-01T12:36:32;3.90;;;3.47;;
7919;SDS011;18778;47.610;9.776;2023-02-01T12:39:05;4.13;;;3.43;;
7919;SDS011;18778;47.610;9.776;2023-02-01T12:47:05;5.63;;;3.87;;
7919;SDS011;18778;47.610;9.776;2023-02-01T12:49:47;4.43;;;3.43;;
7919;SDS011;18778;47.610;9.776;2023-02-01T12:52:20;4.13;;;3.13;;
7919;SDS011;18778;47.610;9.776;2023-02-01T12:54:55;4.97;;;3.70;;
7919;SDS011;18778;47.610;9.776;2023-02-01T12:57:36;9.37;;;3.30;;
7919;SDS011;18778;47.610;9.776;2023-02-01T13:02:43;6.33;;;3.63;;
7919;SDS011;18778;47.610;9.776;2023-02-01T13:05:17;5.00;;;3.77;;
7919;SDS011;18778;47.610;9.776;2023-02-01T13:07:50;4.97;;;3.83;;
7919;SDS011;18778;47.610;9.776;2023-02-01T13:10:32;4.93;;;3.80;;
7919;SDS011;18778;47.610;9.776;2023-02-01T13:16:12;4.70;;;3.67;;
7919;SDS011;18778;47.610;9.776;2023-02-01T13:18:43;6.20;;;3.80;;
7919;SDS011;18778;47.610;9.776;2023-02-01T13:21:14;5.27;;;3.80;;
7919;SDS011;18778;47.610;9.776;2023-02-01T13:23:44;5.57;;;3.57;;
7919;SDS011;18778;47.610;9.776;2023-02-01T13:26:12;5.07;;;3.43;;
7919;SDS011;18778;47.610;9.776;2023-02-01T13:39:52;6.13;;;3.23;;
7919;SDS011;18778;47.610;9.776;2023-02-01T13:42:29;3.37;;;3.07;;
7919;SDS011;18778;47.610;9.776;2023-02-01T13:45:01;5.53;;;3.43;;
7919;SDS011;18778;47.610;9.776;2023-02-01T13:47:35;3.57;;;3.03;;
7919;SDS011;18778;47.610;9.776;2023-02-01T13:52:59;4.57;;;3.10;;
7919;SDS011;18778;47.610;9.776;2023-02-01T13:55:40;3.40;;;3.10;;
7919;SDS011;18778;47.610;9.776;2023-02-01T14:00:41;3.50;;;3.20;;
7919;SDS011;18778;47.610;9.776;2023-02-01T14:21:20;6.10;;;4.63;;
7919;SDS011;18778;47.610;9.776;2023-02-01T14:26:19;7.00;;;4.40;;
7919;SDS011;18778;47.610;9.776;2023-02-01T14:28:52;6.27;;;4.63;;
7919;SDS011;18778;47.610;9.776;2023-02-01T14:31:33;6.53;;;4.50;;
7919;SDS011;18778;47.610;9.776;2023-02-01T14:34:04;8.17;;;5.13;;
7919;SDS011;18778;47.610;9.776;2023-02-01T14:36:41;4.90;;;4.10;;
7919;SDS011;18778;47.610;9.776;2023-02-01T14:40:14;6.63;;;3.90;;
7919;SDS011;18778;47.610;9.776;2023-02-01T14:55:49;4.23;;;3.40;;
7919;SDS011;18778;47.610;9.776;2023-02-01T15:06:36;5.90;;;3.70;;
7919;SDS011;18778;47.610;9.776;2023-02-01T15:09:08;11.03;;;3.63;;
7919;SDS011;18778;47.610;9.776;2023-02-01T15:14:24;8.63;;;3.00;;
7919;SDS011;18778;47.610;9.776;2023-02-01T15:16:50;7.43;;;3.13;;
7919;SDS011;18778;47.610;9.776;2023-02-01T15:19:18;9.77;;;3.30;;
7919;SDS011;18778;47.610;9.776;2023-02-01T15:21:47;7.20;;;3.67;;
7919;SDS011;18778;47.610;9.776;2023-02-01T15:24:19;6.17;;;3.20;;
7919;SDS011;18778;47.610;9.776;2023-02-01T15:26:45;6.83;;;3.30;;
7919;SDS011;18778;47.610;9.776;2023-02-01T15:29:11;6.97;;;2.90;;
7919;SDS011;18778;47.610;9.776;2023-02-01T15:31:43;11.10;;;3.00;;
7919;SDS011;18778;47.610;9.776;2023-02-01T15:34:11;6.73;;;2.87;;
7919;SDS011;18778;47.610;9.776;2023-02-01T15:36:37;5.83;;;2.77;;
7919;SDS011;18778;47.610;9.776;2023-02-01T15:41:48;7.93;;;3.10;;
7919;SDS011;18778;47.610;9.776;2023-02-01T15:44:19;6.60;;;3.50;;
7919;SDS011;18778;47.610;9.776;2023-02-01T15:46:57;7.53;;;3.30;;
7919;SDS011;18778;47.610;9.776;2023-02-01T15:49:30;4.03;;;2.70;;
7919;SDS011;18778;47.610;9.776;2023-02-01T15:52:01;6.67;;;3.23;;
7919;SDS011;18778;47.610;9.776;2023-02-01T15:54:31;10.33;;;2.70;;
7919;SDS011;18778;47.610;9.776;2023-02-01T15:57:05;6.13;;;3.10;;
7919;SDS011;18778;47.610;9.776;2023-02-01T15:59:41;6.57;;;2.73;;
7919;SDS011;18778;47.610;9.776;2023-02-01T16:02:44;7.27;;;2.97;;
7919;SDS011;18778;47.610;9.776;2023-02-01T16:05:04;11.60;;;3.20;;
7919;SDS011;18778;47.610;9.776;2023-02-01T16:07:31;8.87;;;3.17;;
7919;SDS011;18778;47.610;9.776;2023-02-01T16:09:59;6.57;;;3.27;;
7919;SDS011;18778;47.610;9.776;2023-02-01T16:12:32;7.57;;;3.27;;
7919;SDS011;18778;47.610;9.776;2023-02-01T16:15:23;6.70;;;2.80;;
7919;SDS011;18778;47.610;9.776;2023-02-01T16:17:49;10.83;;;3.80;;
7919;SDS011;18778;47.610;9.776;2023-02-01T16:20:14;8.27;;;3.50;;
7919;SDS011;18778;47.610;9.776;2023-02-01T16:22:40;6.53;;;3.27;;
7919;SDS011;18778;47.610;9.776;2023-02-01T16:25:06;4.93;;;3.07;;
7919;SDS011;18778;47.610;9.776;2023-02-01T16:27:32;7.07;;;3.07;;
7919;SDS011;18778;47.610;9.776;2023-02-01T16:29:57;9.30;;;3.67;;
7919;SDS011;18778;47.610;9.776;2023-02-01T16:32:23;10.07;;;3.73;;
7919;SDS011;18778;47.610;9.776;2023-02-01T16:34:48;6.30;;;3.20;;
7919;SDS011;18778;47.610;9.776;2023-02-01T16:37:16;6.67;;;3.23;;
7919;SDS011;18778;47.610;9.776;2023-02-01T16:39:46;7.60;;;3.47;;
7919;SDS011;18778;47.610;9.776;2023-02-01T16:42:12;7.47;;;3.40;;
7919;SDS011;18778;47.610;9.776;2023-02-01T16:44:38;7.97;;;3.07;;
7919;SDS011;18778;47.610;9.776;2023-02-01T16:47:11;7.60;;;3.30;;
7919;SDS011;18778;47.610;9.776;2023-02-01T16:49:41;8.33;;;3.00;;
7919;SDS011;18778;47.610;9.776;2023-02-01T16:52:09;8.77;;;3.53;;
7919;SDS011;18778;47.610;9.776;2023-02-01T16:54:42;4.67;;;3.67;;
7919;SDS011;18778;47.610;9.776;2023-02-01T16:57:15;6.80;;;3.23;;
7919;SDS011;18778;47.610;9.776;2023-02-01T16:59:42;6.10;;;2.90;;
7919;SDS011;18778;47.610;9.776;2023-02-01T17:02:12;7.07;;;3.70;;
7919;SDS011;18778;47.610;9.776;2023-02-01T17:04:39;6.13;;;3.13;;
7919;SDS011;18778;47.610;9.776;2023-02-01T17:07:05;5.10;;;2.83;;
7919;SDS011;18778;47.610;9.776;2023-02-01T17:09:37;5.37;;;3.03;;
7919;SDS011;18778;47.610;9.776;2023-02-01T17:12:03;8.50;;;3.67;;
7919;SDS011;18778;47.610;9.776;2023-02-01T17:14:35;7.77;;;3.20;;
7919;SDS011;18778;47.610;9.776;2023-02-01T17:17:04;7.03;;;3.10;;
7919;SDS011;18778;47.610;9.776;2023-02-01T17:19:29;5.97;;;2.90;;
7919;SDS011;18778;47.610;9.776;2023-02-01T17:21:56;4.50;;;3.00;;
7919;SDS011;18778;47.610;9.776;2023-02-01T17:24:25;8.97;;;3.23;;
7919;SDS011;18778;47.610;9.776;2023-02-01T17:26:52;7.57;;;3.37;;
7919;SDS011;18778;47.610;9.776;2023-02-01T17:29:18;6.87;;;3.37;;
7919;SDS011;18778;47.610;9.776;2023-02-01T17:31:45;5.10;;;3.20;;
7919;SDS011;18778;47.610;9.776;2023-02-01T17:34:19;7.33;;;3.17;;
7919;SDS011;18778;47.610;9.776;2023-02-01T17:36:45;5.70;;;3.50;;